Terminal Aerodrome Forecast
Issued by NWS Mt. Holly, NJ

Home | Current Version | Previous Version | Text Only | Print | Product List | Glossary On
Versions: 1 2 3 4 5 6 7 8 9 10 11 12 13 14 15 16 17 18 19 20 21 22
739
FTUS41 KPHI 101134
TAFACY
TAF
KACY 101134Z 1012/1112 27008KT P6SM FEW060 BKN200
     FM101700 29013G20KT P6SM BKN050
     FM102100 30008KT P6SM SCT050
     FM110800 VRB02KT P6SM OVC120=

USA.gov is the U.S. government's official web portal to all federal, state and local government web resources and services.